Time;durP1;ratioP1;P1;durP2;ratioP2;P2;SDS_P1;SDS_P2;PMS_P1;PMS_P2;Temp;Humidity;BMP_temperature;BMP_pressure;BME280_temperature;BME280_humidity;BME280_pressure;Samples;Min_cycle;Max_cycle;Signal;HPM_P1;HPM_P2
2023/06/27 00:00:50;;;;;;;;;;;;;;;17.09;100.00;98196.97;18563338;32;19952;-49
2023/06/27 00:10:52;;;;;;;;;;;;;;;16.89;100.00;98196.19;18548068;32;20024;-48
2023/06/27 00:20:55;;;;;;;;;;;;;;;16.67;100.00;98204.97;18547749;32;19956;-47
2023/06/27 00:30:57;;;;;;;;;;;;;;;16.54;100.00;98205.72;18547231;32;19952;-47
2023/06/27 00:41:00;;;;;;;;;;;;;;;16.47;100.00;98203.38;18561338;32;19959;-47
2023/06/27 00:51:03;;;;;;;;;;;;;;;16.34;100.00;98206.84;18545811;32;20038;-47
2023/06/27 01:01:06;;;;;;;;;;;;;;;16.20;100.00;98210.31;18560664;32;19948;-48
2023/06/27 01:11:18;;;;;;;;;;;;;;;16.07;100.00;98211.84;18560503;32;19972;-47
2023/06/27 01:21:24;;;;;;;;;;;;;;;15.91;100.00;98213.94;18559980;32;19956;-48
2023/06/27 01:31:29;;;;;;;;;;;;;;;15.76;100.00;98214.91;18545400;32;19957;-49
2023/06/27 01:41:36;;;;;;;;;;;;;;;15.64;100.00;98216.44;18559587;32;20012;-47
2023/06/27 01:51:40;;;;;;;;;;;;;;;15.49;100.00;98207.31;18559335;32;19960;-47
2023/06/27 02:01:42;;;;;;;;;;;;;;;15.33;100.00;98197.66;18564319;32;20028;-47
2023/06/27 02:11:45;;;;;;;;;;;;;;;15.15;100.00;98194.56;18570009;32;19967;-46
2023/06/27 02:21:48;;;;;;;;;;;;;;;14.99;100.00;98187.63;18554778;32;19967;-47
2023/06/27 02:31:51;;;;;;;;;;;;;;;14.87;100.00;98188.81;18568712;32;20337;-48
2023/06/27 02:41:53;;;;;;;;;;;;;;;14.70;100.00;98185.69;18567945;32;19971;-48
2023/06/27 02:51:55;;;;;;;;;;;;;;;14.56;100.00;98189.03;18567443;32;20012;-47
2023/06/27 03:01:58;;;;;;;;;;;;;;;14.42;100.00;98185.34;18566884;32;20318;-49
2023/06/27 03:12:00;;;;;;;;;;;;;;;14.37;100.00;98193.53;18551731;31;19956;-48
2023/06/27 03:22:03;;;;;;;;;;;;;;;14.43;100.00;98202.47;18565952;32;20008;-47
2023/06/27 03:32:05;;;;;;;;;;;;;;;14.36;100.00;98200.03;18564637;32;20336;-47
2023/06/27 03:42:07;;;;;;;;;;;;;;;14.29;100.00;98208.53;18550269;32;19952;-47
2023/06/27 03:52:10;;;;;;;;;;;;;;;14.27;100.00;98204.47;18563999;32;19948;-48
2023/06/27 04:02:13;;;;;;;;;;;;;;;14.24;100.00;98195.78;18549278;32;20025;-47
2023/06/27 04:12:16;;;;;;;;;;;;;;;14.22;100.00;98197.97;18562583;32;19956;-51
2023/06/27 04:22:19;;;;;;;;;;;;;;;14.23;100.00;98205.03;18561640;32;19953;-47
2023/06/27 04:32:23;;;;;;;;;;;;;;;14.31;100.00;98208.25;18561522;32;19999;-48
2023/06/27 04:42:26;;;;;;;;;;;;;;;14.47;100.00;98217.13;18561300;32;19957;-48
2023/06/27 04:52:29;;;;;;;;;;;;;;;14.68;100.00;98220.56;18561099;32;19960;-47
2023/06/27 05:02:33;;;;;;;;;;;;;;;14.91;100.00;98219.84;18560569;32;20003;-48
2023/06/27 05:12:50;;;;;;;;;;;;;;;15.15;100.00;98216.34;18548141;32;19974;-47
2023/06/27 05:22:53;;;;;;;;;;;;;;;15.54;100.00;98220.88;18559877;32;19997;-48
2023/06/27 05:32:57;;;;;;;;;;;;;;;15.97;100.00;98222.06;18547223;32;19969;-48
2023/06/27 05:43:03;;;;;;;;;;;;;;;16.21;100.00;98227.47;18557974;32;20004;-49
2023/06/27 05:53:07;;;;;;;;;;;;;;;16.45;100.00;98221.16;18571357;32;19960;-49
2023/06/27 06:03:13;;;;;;;;;;;;;;;16.43;100.00;98214.06;18570221;32;19990;-51
2023/06/27 06:13:16;;;;;;;;;;;;;;;16.47;100.00;98229.84;18569704;32;20279;-46
2023/06/27 06:23:19;;;;;;;;;;;;;;;16.68;100.00;98217.53;18569366;32;19952;-47
2023/06/27 06:33:22;;;;;;;;;;;;;;;17.10;100.00;98213.06;18568423;32;19972;-46
2023/06/27 06:43:26;;;;;;;;;;;;;;;17.58;100.00;98216.56;18567641;32;19988;-47
2023/06/27 06:53:29;;;;;;;;;;;;;;;17.98;100.00;98213.34;18567236;31;19952;-46
2023/06/27 07:03:36;;;;;;;;;;;;;;;18.41;100.00;98222.00;18566995;32;19949;-47
2023/06/27 07:13:46;;;;;;;;;;;;;;;18.98;100.00;98219.91;18566513;32;20348;-46
2023/06/27 07:23:48;;;;;;;;;;;;;;;19.53;100.00;98219.59;18565374;32;19983;-46
2023/06/27 07:33:52;;;;;;;;;;;;;;;20.06;100.00;98208.81;18564969;32;19983;-47
2023/06/27 07:43:55;;;;;;;;;;;;;;;20.56;100.00;98200.16;18564445;32;19975;-46
2023/06/27 07:54:00;;;;;;;;;;;;;;;20.80;99.83;98212.63;18549244;32;19994;-46
2023/06/27 08:04:02;;;;;;;;;;;;;;;20.96;88.83;98207.44;18548280;32;19952;-48
2023/06/27 08:14:05;;;;;;;;;;;;;;;21.35;87.62;98199.28;18562533;32;19990;-47
2023/06/27 08:24:08;;;;;;;;;;;;;;;21.65;83.26;98192.72;18534919;32;20000;-48
2023/06/27 08:34:11;;;;;;;;;;;;;;;21.94;89.38;98191.12;18547737;32;19957;-47
2023/06/27 08:44:14;;;;;;;;;;;;;;;22.32;78.87;98181.97;18561080;31;20047;-49
2023/06/27 08:54:22;;;;;;;;;;;;;;;22.66;73.23;98188.34;18547145;32;19963;-47
2023/06/27 09:04:25;;;;;;;;;;;;;;;22.82;66.47;98191.31;18533661;32;19993;-47
2023/06/27 09:14:29;;;;;;;;;;;;;;;22.95;70.97;98183.06;18571622;32;19971;-48
2023/06/27 09:24:32;;;;;;;;;;;;;;;23.21;72.11;98180.06;18573114;32;20244;-47
2023/06/27 09:34:35;;;;;;;;;;;;;;;23.45;73.02;98189.56;18557867;32;19975;-48
2023/06/27 09:44:38;;;;;;;;;;;;;;;23.69;68.70;98178.53;18571632;32;20264;-50
2023/06/27 09:54:44;;;;;;;;;;;;;;;23.85;63.15;98180.59;18571328;32;20000;-47
2023/06/27 10:04:48;;;;;;;;;;;;;;;24.46;63.01;98170.63;18570660;32;19976;-47
2023/06/27 10:14:52;;;;;;;;;;;;;;;24.84;58.82;98169.38;18570071;32;19986;-50
2023/06/27 10:24:57;;;;;;;;;;;;;;;24.98;55.87;98169.78;18568130;32;19944;-47
2023/06/27 10:35:30;;;;;;;;;;;;;;;24.91;53.32;98169.56;18554349;31;19994;-48
2023/06/27 10:46:04;;;;;;;;;;;;;;;25.20;55.26;98162.03;18567733;32;20411;-47
2023/06/27 10:56:14;;;;;;;;;;;;;;;25.37;52.69;98155.38;18552804;32;20333;-47
2023/06/27 11:06:17;;;;;;;;;;;;;;;25.23;48.30;98157.75;18566696;32;19956;-46
2023/06/27 11:16:24;;;;;;;;;;;;;;;25.53;51.24;98141.53;18552259;32;19976;-47
2023/06/27 11:26:28;;;;;;;;;;;;;;;25.94;48.77;98141.31;18551397;31;19952;-47
2023/06/27 11:36:31;;;;;;;;;;;;;;;26.18;49.00;98148.59;18564756;32;20334;-46
2023/06/27 11:46:34;;;;;;;;;;;;;;;26.25;49.85;98140.44;18564169;32;19964;-46
2023/06/27 11:56:38;;;;;;;;;;;;;;;26.19;46.90;98139.13;18563353;32;19961;-46
2023/06/27 12:06:42;;;;;;;;;;;;;;;26.76;46.27;98122.09;18563526;32;20253;-46
2023/06/27 12:16:45;;;;;;;;;;;;;;;27.07;43.80;98125.84;18562671;32;19964;-47
2023/06/27 12:26:49;;;;;;;;;;;;;;;26.84;43.69;98109.94;18547206;32;20004;-47
2023/06/27 12:36:52;;;;;;;;;;;;;;;26.55;44.64;98109.38;18561827;32;19960;-46
2023/06/27 12:46:55;;;;;;;;;;;;;;;27.21;43.97;98106.62;18546748;32;19981;-51
2023/06/27 12:56:59;;;;;;;;;;;;;;;27.65;43.80;98085.94;18561221;32;19976;-48
2023/06/27 13:07:02;;;;;;;;;;;;;;;28.03;41.03;98084.12;18546258;32;20250;-47
2023/06/27 13:17:06;;;;;;;;;;;;;;;28.79;38.44;98082.25;18560016;32;19956;-47
2023/06/27 13:27:09;;;;;;;;;;;;;;;28.83;43.01;98058.06;18545748;31;20238;-48
2023/06/27 13:37:13;;;;;;;;;;;;;;;29.31;42.67;98051.75;18560063;32;19971;-47
2023/06/27 13:47:16;;;;;;;;;;;;;;;28.46;41.06;98039.38;18559427;32;19940;-47
2023/06/27 13:57:19;;;;;;;;;;;;;;;28.43;38.96;98040.91;18565201;32;20305;-48
2023/06/27 14:07:22;;;;;;;;;;;;;;;29.19;35.31;98034.13;18570511;32;19968;-47
2023/06/27 14:17:26;;;;;;;;;;;;;;;29.40;36.31;98033.50;18569837;32;19979;-48
2023/06/27 14:27:29;;;;;;;;;;;;;;;29.75;38.29;98026.56;18569056;31;19968;-47
2023/06/27 14:37:32;;;;;;;;;;;;;;;29.55;37.99;98033.59;18568739;32;20341;-51
2023/06/27 14:47:36;;;;;;;;;;;;;;;29.88;32.89;98027.03;18568135;32;19972;-47
2023/06/27 14:57:40;;;;;;;;;;;;;;;29.81;34.65;98012.25;18567612;32;19953;-47
2023/06/27 15:07:48;;;;;;;;;;;;;;;28.97;38.12;98010.88;18566253;32;19968;-46
2023/06/27 15:17:55;;;;;;;;;;;;;;;28.14;40.03;97996.09;18566387;32;20012;-46
2023/06/27 15:27:59;;;;;;;;;;;;;;;27.49;40.75;97983.34;18565187;31;19985;-46
2023/06/27 15:38:02;;;;;;;;;;;;;;;26.77;42.89;97987.75;18565410;32;19960;-46
2023/06/27 15:48:05;;;;;;;;;;;;;;;26.14;47.76;97971.16;18537155;32;19960;-47
2023/06/27 15:58:09;;;;;;;;;;;;;;;25.83;44.44;97952.69;18549484;32;19952;-47
2023/06/27 16:08:15;;;;;;;;;;;;;;;25.81;42.63;97941.19;18563082;32;19965;-48
2023/06/27 16:18:21;;;;;;;;;;;;;;;25.36;45.31;97930.34;18562086;32;20280;-46
2023/06/27 16:28:24;;;;;;;;;;;;;;;25.19;43.98;97914.16;18561927;32;19985;-45
2023/06/27 16:38:27;;;;;;;;;;;;;;;25.02;47.85;97918.94;18561401;32;19967;-46
2023/06/27 16:48:30;;;;;;;;;;;;;;;26.17;45.99;97914.97;18547341;32;19971;-46
2023/06/27 16:58:32;;;;;;;;;;;;;;;25.70;48.50;97904.97;18561249;31;20281;-47
2023/06/27 17:08:35;;;;;;;;;;;;;;;24.85;51.20;97903.50;18561079;32;20323;-46
2023/06/27 17:18:37;;;;;;;;;;;;;;;24.17;54.79;97897.09;18546512;32;19960;-46
2023/06/27 17:28:40;;;;;;;;;;;;;;;24.08;55.81;97890.91;18561453;32;20328;-46
2023/06/27 17:38:42;;;;;;;;;;;;;;;23.73;55.85;97885.19;18572283;32;20012;-45
2023/06/27 17:48:45;;;;;;;;;;;;;;;23.64;61.06;97888.09;18557823;32;19996;-49
2023/06/27 17:58:48;;;;;;;;;;;;;;;23.33;63.93;97884.88;18570837;31;19979;-45
2023/06/27 18:08:51;;;;;;;;;;;;;;;24.36;64.53;97896.34;18570608;32;19949;-47
2023/06/27 18:18:56;;;;;;;;;;;;;;;28.43;48.29;97912.97;18570005;32;20006;-48
2023/06/27 18:28:59;;;;;;;;;;;;;;;27.19;45.60;97907.16;18555006;31;19960;-46
2023/06/27 18:39:05;;;;;;;;;;;;;;;23.86;52.65;97909.62;18568374;32;19971;-46
2023/06/27 18:49:07;;;;;;;;;;;;;;;22.30;57.59;97895.00;18567837;32;20336;-45
2023/06/27 18:59:10;;;;;;;;;;;;;;;21.36;62.46;97890.88;18567379;32;19964;-45
2023/06/27 19:09:13;;;;;;;;;;;;;;;20.73;68.25;97891.59;18552967;32;19961;-47
2023/06/27 19:19:17;;;;;;;;;;;;;;;20.21;73.35;97889.87;18551767;32;19960;-45
2023/06/27 19:29:20;;;;;;;;;;;;;;;19.68;86.31;97891.09;18551277;31;19953;-46
2023/06/27 19:39:25;;;;;;;;;;;;;;;19.16;93.33;97887.25;18551205;32;19952;-45
2023/06/27 19:49:28;;;;;;;;;;;;;;;18.72;97.92;97903.56;18537193;32;19971;-45
2023/06/27 19:59:31;;;;;;;;;;;;;;;18.35;100.00;97915.81;18563652;32;20311;-45
2023/06/27 20:09:35;;;;;;;;;;;;;;;18.01;100.00;97923.53;18548771;32;20028;-45
2023/06/27 20:19:39;;;;;;;;;;;;;;;17.69;100.00;97940.97;18562710;32;20328;-44
2023/06/27 20:29:42;;;;;;;;;;;;;;;17.43;100.00;97945.13;18561678;31;20008;-46
2023/06/27 20:39:45;;;;;;;;;;;;;;;17.21;100.00;97953.25;18561737;31;20256;-45
2023/06/27 20:49:49;;;;;;;;;;;;;;;17.03;100.00;97958.53;18561386;32;19953;-45
2023/06/27 20:59:53;;;;;;;;;;;;;;;16.88;100.00;97956.94;18560953;32;19952;-46
2023/06/27 21:09:56;;;;;;;;;;;;;;;16.79;100.00;97980.59;18570967;32;19979;-45
2023/06/27 21:20:01;;;;;;;;;;;;;;;16.80;100.00;97989.59;18559691;32;20019;-46
2023/06/27 21:30:05;;;;;;;;;;;;;;;16.65;100.00;98001.63;18572749;31;19963;-46
2023/06/27 21:40:08;;;;;;;;;;;;;;;16.48;100.00;97991.28;18558318;32;19960;-46
2023/06/27 21:50:10;;;;;;;;;;;;;;;16.32;100.00;97997.03;18571670;32;20298;-45
2023/06/27 22:00:15;;;;;;;;;;;;;;;16.12;100.00;97994.66;18571030;32;19968;-46
2023/06/27 22:10:18;;;;;;;;;;;;;;;15.94;100.00;97991.66;18571028;32;20265;-46
2023/06/27 22:20:21;;;;;;;;;;;;;;;15.80;100.00;97997.06;18569005;32;19985;-45
2023/06/27 22:30:23;;;;;;;;;;;;;;;15.68;100.00;97991.22;18569041;31;19992;-45
2023/06/27 22:40:27;;;;;;;;;;;;;;;15.64;100.00;97992.91;18568795;32;20260;-47
2023/06/27 22:50:30;;;;;;;;;;;;;;;15.55;100.00;97982.66;18568554;32;19940;-46
2023/06/27 23:00:33;;;;;;;;;;;;;;;15.39;100.00;97978.53;18553562;32;20000;-46
2023/06/27 23:10:35;;;;;;;;;;;;;;;15.19;100.00;97969.53;18567156;32;20043;-45
2023/06/27 23:20:40;;;;;;;;;;;;;;;14.99;100.00;97969.78;18566123;31;19981;-45
2023/06/27 23:30:50;;;;;;;;;;;;;;;14.86;100.00;97965.87;18551417;32;19953;-45
2023/06/27 23:40:55;;;;;;;;;;;;;;;14.74;100.00;97974.44;18565558;32;19948;-45
2023/06/27 23:50:58;;;;;;;;;;;;;;;14.60;100.00;97973.50;18550045;32;19986;-46
